Skip Navigation Links
NOAA logo - Click to go to the NOAA homepage
NOAA's National Weather Service
Alaska Aviation Weather Unit
  NWS logo - Click to go to the NWS homepage
Left Navbar Graphic     18 AKDT = 02 GMT

   
NOAA is celebrating 200 years of science, service, and stewardship. Visit the NOAA 200th celebration Web site to learn more.
USA.gov is the U.S. Government's official Web portal to all Federal, state and local government Web resources and services.
Facebook
NWS on Facebook

Important Change Regarding the AAWU Web Presence

 

Over the last several months, the AAWU has been working to navigate its webpages to a nationally supported server. Security, as well as other needs, have necessitated the change.  In the process, we have made an effort to enhance the functionality of our website, as well as some of our products. As of June 20, 2017, aawu.arh.noaa.gov will be discontinued. The new AAWU web address is weather.gov/aawu. It is now live and will run in-parallel with the old site until it is discontinued. Please send any feedback or questions regarding the new webpages to nws.ar.aawu.webauthors@noaa.gov.  Thank you for your patience during this time of transition.
AAWU Home :: Display TAF Add Bookmark
TAF PASY 250159Z 2502/2604 22012G18KT 9999 BKN020 610169
      QNH3020INS
      BECMG 2503/2504 22012G18KT 9000 -SHRA BKN012 OVC060 610189
      QNH3004INS WND 25012 AFT 2510
      TEMPO 2504/2510 20015G25KT BKN009 OVC012 610189
      BECMG 2511/2512 35009KT 9999 NSW SCT012 BKN030 610304
      QNH3006INS TX06/2600Z TN03/2516Z=
METAR PASY 242056Z 24017KT 7SM BKN023 BKN090 04/02 A3024=

PASY 242103Z COR 24019KT 7SM SCT023 BKN090 05/02 A3024=

SPECI PASY 242103Z COR 24019KT 7SM SCT023 BKN090 05/02 A3024 RMK AO2
WND DATA ESTMD $ COR 2107=

METAR PASY 242156Z 23018KT 7SM SCT023 BKN085 05/02 A3023=

PASY 242203Z 23015KT 7SM OVC020 05/02 A3024=

SPECI PASY 242203Z 23015KT 7SM OVC020 05/02 A3024 RMK AO2 WND DATA
ESTMD $=

METAR PASY 242256Z 23015KT 7SM FEW012 BKN026 05/02 A3023=

PASY 242343Z 23016KT 7SM -RA SCT008 BKN014 OVC025 05/02 A3022=

SPECI PASY 242343Z 23016KT 7SM -RA SCT008 BKN014 OVC025 05/02 A3022
RMK AO2 RAB34 WND DATA ESTMD $=

METAR PASY 242356Z 23016KT 7SM FEW008 OVC014 04/02 A3022=

METAR PASY 250012Z 21020KT 7SM SCT011 BKN016 OVC036 04/03 A3021=

SPECI PASY 250012Z 21020KT 7SM SCT011 BKN016 OVC036 04/03 A3021 RMK
AO2 WND DATA ESTMD $=

PASY 250021Z 21020KT 7SM BKN013 OVC036 04/03 A3021=

SPECI PASY 250021Z 21020KT 7SM BKN013 OVC036 04/03 A3021 RMK AO2 WND
DATA ESTMD $=

METAR PASY 250056Z 21020KT 7SM BKN013 BKN060 OVC090 04/03 A3021=

PASY 250129Z AUTO 20012KT 7SM FEW008 BKN013 OVC055 05/03 A3019=

METAR PASY 250136Z AUTO 20012KT 7SM SCT010 BKN018 OVC055 05/03 A3019=

PASY 250144Z AUTO 20012KT 7SM SCT010 OVC055 05/03 A3019=

METAR PASY 250154Z AUTO 20012KT 7SM BKN010 BKN013 OVC055 05/03 A3018=

METAR PASY 250156Z AUTO 20012KT 7SM BKN010 BKN013 OVC055 05/03 A3018=

PASY 250205Z AUTO SCT010 BKN015 OVC055 A3018=

PASY 250213Z AUTO BKN008 OVC015 A3018=

PASY 250223Z AUTO FEW007 OVC015 A3017=

PASY 250230Z AUTO FEW007 BKN013 OVC027 A3017=


NOAA's National Weather Service
Alaska Aviation Weather Unit
6930 Sand Lake Road
Anchorage, AK 99502-1845
Disclaimer
Credits
Glossary
Privacy Policy
About Us
Career Opportunities
Contact AAWU Internet Services Site last modified: April, 17th 2012